createdAt,value
2018-04-27T00:00:17.371Z,9.60
2018-04-27T00:02:53.815Z,9.60
2018-04-27T00:05:23.770Z,9.60
2018-04-27T00:07:54.724Z,9.60
2018-04-27T00:10:24.819Z,9.70
2018-04-27T00:12:55.113Z,9.80
2018-04-27T00:15:29.940Z,9.80
2018-04-27T00:18:00.191Z,9.70
2018-04-27T00:20:32.389Z,9.80
2018-04-27T00:23:02.962Z,9.70
2018-04-27T00:25:35.196Z,9.80
2018-04-27T00:28:09.231Z,9.80
2018-04-27T00:30:39.005Z,9.90
2018-04-27T00:33:08.654Z,9.90
2018-04-27T00:35:39.147Z,9.60
2018-04-27T00:38:18.143Z,9.50
2018-04-27T00:40:54.903Z,9.50
2018-04-27T00:43:26.854Z,9.60
2018-04-27T00:45:56.518Z,9.50
2018-04-27T00:48:26.002Z,9.30
2018-04-27T00:50:55.929Z,9.10
2018-04-27T00:53:25.442Z,9.10
2018-04-27T00:55:54.967Z,9.30
2018-04-27T00:58:27.815Z,9.10
2018-04-27T01:00:57.317Z,9.10
2018-04-27T01:03:27.178Z,9.10
2018-04-27T01:05:57.153Z,9.10
2018-04-27T01:08:26.941Z,8.80
2018-04-27T01:10:57.250Z,8.60
2018-04-27T01:13:27.167Z,8.60
2018-04-27T01:15:56.670Z,8.60
2018-04-27T01:18:26.224Z,8.70
2018-04-27T01:21:03.150Z,8.50
2018-04-27T01:23:32.785Z,8.50
2018-04-27T01:26:03.069Z,8.50
2018-04-27T01:28:33.870Z,8.40
2018-04-27T01:31:03.808Z,8.40
2018-04-27T01:33:33.287Z,8.30
2018-04-27T01:36:03.438Z,8.30
2018-04-27T01:38:32.987Z,8.30
2018-04-27T01:41:04.313Z,8.30
2018-04-27T01:43:34.298Z,8.30
2018-04-27T01:46:04.882Z,8.30
2018-04-27T01:48:37.307Z,8.30
2018-04-27T01:51:07.192Z,8.20
2018-04-27T01:53:36.647Z,8.30
2018-04-27T01:56:06.248Z,8.40
2018-04-27T01:58:36.171Z,8.40
2018-04-27T02:01:06.656Z,8.20
2018-04-27T02:03:36.132Z,8.20
2018-04-27T02:06:06.864Z,8.30
2018-04-27T02:08:36.387Z,8.30
2018-04-27T02:11:05.960Z,8.30
2018-04-27T02:13:37.561Z,8.50
2018-04-27T02:16:07.744Z,8.40
2018-04-27T02:18:38.094Z,8.40
2018-04-27T02:21:08.639Z,8.50
2018-04-27T02:23:38.127Z,8.50
2018-04-27T02:26:08.393Z,8.50
2018-04-27T02:28:38.343Z,8.50
2018-04-27T02:31:08.001Z,8.50
2018-04-27T02:33:37.466Z,8.50
2018-04-27T02:36:07.276Z,8.40
2018-04-27T02:38:37.513Z,8.20
2018-04-27T02:41:07.065Z,8.40
2018-04-27T02:43:36.830Z,8.30
2018-04-27T02:46:06.284Z,8.40
2018-04-27T02:48:36.597Z,8.40
2018-04-27T02:51:07.329Z,8.40
2018-04-27T02:53:36.792Z,8.50
2018-04-27T02:56:07.159Z,8.50
2018-04-27T02:58:36.873Z,8.50
2018-04-27T03:01:06.312Z,8.50
2018-04-27T03:03:35.823Z,8.50
2018-04-27T03:06:05.655Z,8.50
2018-04-27T03:08:35.448Z,8.50
2018-04-27T03:11:05.229Z,8.50
2018-04-27T03:13:35.769Z,8.50
2018-04-27T03:16:06.308Z,8.50
2018-04-27T03:18:36.601Z,8.50
2018-04-27T03:21:07.472Z,8.50
2018-04-27T03:23:39.110Z,8.40
2018-04-27T03:26:13.355Z,8.50
2018-04-27T03:28:46.953Z,8.50
2018-04-27T03:31:17.206Z,8.60
2018-04-27T03:33:46.625Z,8.60
2018-04-27T03:36:17.302Z,8.60
2018-04-27T03:38:47.432Z,8.60
2018-04-27T03:41:16.883Z,8.60
2018-04-27T03:43:48.329Z,8.60
2018-04-27T03:46:17.790Z,8.60
2018-04-27T03:48:47.485Z,8.50
2018-04-27T03:51:18.286Z,8.70
2018-04-27T03:53:57.204Z,8.60
2018-04-27T03:56:27.624Z,8.70
2018-04-27T03:58:56.984Z,8.70
2018-04-27T04:03:41.238Z,8.70
2018-04-27T04:06:10.702Z,8.70
2018-04-27T04:08:40.149Z,8.60
2018-04-27T04:11:10.145Z,8.50
2018-04-27T04:13:40.447Z,8.40
2018-04-27T04:16:10.062Z,8.40
2018-04-27T04:18:39.597Z,8.40
2018-04-27T04:21:09.532Z,8.40
2018-04-27T04:23:39.578Z,8.20
2018-04-27T04:26:10.433Z,8.10
2018-04-27T04:28:39.781Z,8.10
2018-04-27T04:31:09.176Z,8.10
2018-04-27T04:33:44.497Z,8.10
2018-04-27T04:36:14.746Z,7.90
2018-04-27T04:38:44.491Z,7.90
2018-04-27T04:41:16.183Z,7.90
2018-04-27T04:43:45.592Z,7.90
2018-04-27T04:46:15.831Z,8.10
2018-04-27T04:48:46.062Z,8.10
2018-04-27T04:51:15.647Z,7.70
2018-04-27T04:53:45.507Z,7.50
2018-04-27T04:56:15.150Z,7.50
2018-04-27T04:58:45.512Z,7.60
2018-04-27T05:01:26.571Z,7.60
2018-04-27T05:03:59.739Z,7.90
2018-04-27T05:06:33.080Z,7.70
2018-04-27T05:09:03.079Z,7.70
2018-04-27T05:11:37.733Z,7.70
2018-04-27T05:14:17.652Z,7.70
2018-04-27T05:17:03.643Z,8.00
2018-04-27T05:19:33.243Z,8.00
2018-04-27T05:22:04.928Z,8.40
2018-04-27T05:24:36.053Z,8.40
2018-04-27T05:27:15.275Z,8.40
2018-04-27T05:29:46.388Z,8.40
2018-04-27T05:32:17.594Z,8.50
2018-04-27T05:34:47.393Z,8.50
2018-04-27T05:37:18.413Z,8.50
2018-04-27T05:39:48.957Z,8.60
2018-04-27T05:42:19.324Z,8.60
2018-04-27T05:44:49.244Z,8.80
2018-04-27T05:47:20.476Z,9.00
2018-04-27T05:49:56.088Z,9.00
2018-04-27T05:52:28.458Z,9.00
2018-04-27T05:54:58.032Z,8.80
2018-04-27T05:57:27.904Z,8.80
2018-04-27T06:00:03.198Z,8.90
2018-04-27T06:02:32.866Z,9.10
2018-04-27T06:05:02.430Z,9.30
2018-04-27T06:07:32.333Z,9.30
2018-04-27T06:10:02.968Z,9.40
2018-04-27T06:12:33.706Z,9.70
2018-04-27T06:15:08.019Z,9.50
2018-04-27T06:17:37.632Z,9.50
2018-04-27T06:20:07.758Z,9.40
2018-04-27T06:22:38.976Z,9.60
2018-04-27T06:25:09.477Z,9.60
2018-04-27T06:27:41.014Z,9.60
2018-04-27T06:30:10.880Z,9.60
2018-04-27T06:32:42.861Z,9.60
2018-04-27T06:35:28.961Z,9.50
2018-04-27T06:37:59.719Z,9.80
2018-04-27T06:40:29.888Z,9.80
2018-04-27T06:46:25.262Z,10.00
2018-04-27T06:48:59.915Z,10.00
2018-04-27T06:51:30.951Z,10.00
2018-04-27T06:54:03.167Z,10.40
2018-04-27T06:56:35.761Z,10.40
2018-04-27T06:59:06.071Z,10.40
2018-04-27T07:08:22.110Z,10.50
2018-04-27T07:10:51.801Z,10.40
2018-04-27T07:13:32.358Z,10.90
2018-04-27T07:16:09.452Z,10.90
2018-04-27T07:18:56.207Z,11.30
2018-04-27T07:21:29.877Z,11.50
2018-04-27T07:24:00.980Z,11.40
2018-04-27T07:27:25.871Z,11.40
2018-04-27T07:30:06.620Z,11.40
2018-04-27T07:32:38.462Z,11.30
2018-04-27T07:35:11.571Z,11.30
2018-04-27T07:37:41.857Z,11.60
2018-04-27T07:40:21.161Z,11.70
2018-04-27T07:42:57.285Z,11.80
2018-04-27T07:45:28.212Z,11.90
2018-04-27T07:47:57.862Z,12.00
2018-04-27T07:50:27.624Z,12.10
2018-04-27T07:52:58.051Z,12.20
2018-04-27T07:55:27.793Z,12.20
2018-04-27T07:58:01.722Z,12.40
2018-04-27T08:00:36.797Z,12.80
2018-04-27T08:03:06.781Z,12.80
2018-04-27T08:05:37.536Z,13.10
2018-04-27T08:08:07.333Z,13.10
2018-04-27T08:10:37.972Z,13.00
2018-04-27T08:13:08.840Z,13.20
2018-04-27T08:15:39.505Z,13.20
2018-04-27T08:18:09.439Z,13.40
2018-04-27T08:20:40.890Z,13.40
2018-04-27T08:23:20.456Z,13.40
2018-04-27T08:25:58.503Z,13.40
2018-04-27T08:28:47.556Z,13.60
2018-04-27T08:31:39.810Z,13.80
2018-04-27T08:34:16.161Z,14.10
2018-04-27T08:36:48.173Z,14.00
2018-04-27T08:39:17.919Z,14.10
2018-04-27T08:41:54.968Z,14.10
2018-04-27T08:44:33.164Z,14.00
2018-04-27T08:47:12.138Z,14.10
2018-04-27T08:49:53.312Z,14.40
2018-04-27T08:55:29.527Z,14.50
2018-04-27T08:57:59.413Z,14.50
2018-04-27T09:00:29.809Z,14.40
2018-04-27T09:03:27.884Z,14.90
2018-04-27T09:06:02.353Z,14.80
2018-04-27T09:08:33.228Z,14.90
2018-04-27T09:11:04.905Z,14.80
2018-04-27T09:13:36.364Z,14.70
2018-04-27T09:16:09.989Z,14.60
2018-04-27T09:18:39.496Z,14.70
2018-04-27T09:21:09.169Z,14.90
2018-04-27T09:23:38.728Z,15.10
2018-04-27T09:26:08.573Z,15.30
2018-04-27T09:28:38.933Z,15.20
2018-04-27T09:31:08.399Z,15.20
2018-04-27T09:33:43.460Z,15.50
2018-04-27T09:36:12.921Z,15.80
2018-04-27T09:38:42.414Z,16.00
2018-04-27T09:41:12.318Z,15.90
2018-04-27T09:44:01.359Z,15.40
2018-04-27T09:46:33.199Z,15.30
2018-04-27T09:49:03.751Z,15.50
2018-04-27T09:51:34.180Z,15.80
2018-04-27T09:54:05.138Z,15.80
2018-04-27T09:56:34.681Z,16.20
2018-04-27T09:59:10.021Z,16.20
2018-04-27T10:01:41.104Z,16.20
2018-04-27T10:04:28.611Z,16.30
2018-04-27T10:07:00.169Z,16.30
2018-04-27T10:10:03.466Z,16.10
2018-04-27T10:13:15.305Z,16.00
2018-04-27T10:15:46.148Z,16.30
2018-04-27T10:18:20.506Z,16.30
2018-04-27T10:20:50.456Z,16.30
2018-04-27T10:23:32.506Z,16.10
2018-04-27T10:26:11.730Z,16.40
2018-04-27T10:28:42.468Z,16.30
2018-04-27T10:31:47.903Z,16.30
2018-04-27T10:34:17.773Z,16.40
2018-04-27T10:36:47.232Z,16.30
2018-04-27T10:39:17.610Z,16.20
2018-04-27T10:41:47.958Z,16.40
2018-04-27T10:44:17.866Z,16.40
2018-04-27T10:46:47.503Z,16.40
2018-04-27T10:49:17.917Z,16.50
2018-04-27T10:51:48.064Z,16.50
2018-04-27T10:54:17.920Z,16.50
2018-04-27T10:56:47.429Z,16.70
2018-04-27T10:59:22.444Z,16.70
2018-04-27T11:01:52.234Z,16.70
2018-04-27T11:04:22.751Z,17.00
2018-04-27T11:06:54.437Z,17.20
2018-04-27T11:09:25.135Z,17.20
2018-04-27T11:11:55.220Z,17.20
2018-04-27T11:14:25.952Z,16.90
2018-04-27T11:16:58.283Z,16.90
2018-04-27T11:19:27.878Z,17.10
2018-04-27T11:22:01.957Z,17.30
2018-04-27T11:24:32.158Z,17.00
2018-04-27T11:27:06.802Z,17.40
2018-04-27T11:29:40.000Z,17.30
2018-04-27T11:32:12.997Z,17.00
2018-04-27T11:35:00.463Z,17.60
2018-04-27T11:37:31.322Z,17.80
2018-04-27T11:40:05.953Z,17.50
2018-04-27T11:42:37.519Z,17.50
2018-04-27T11:45:23.896Z,17.60
2018-04-27T11:48:00.206Z,17.20
2018-04-27T11:50:52.053Z,17.40
2018-04-27T11:54:07.493Z,17.60
2018-04-27T11:56:40.493Z,17.90
2018-04-27T12:09:56.553Z,18.30
2018-04-27T12:12:28.957Z,18.10
2018-04-27T12:15:12.729Z,18.10
2018-04-27T12:17:52.534Z,18.00
2018-04-27T12:20:34.820Z,18.30
2018-04-27T12:26:56.347Z,18.50
2018-04-27T12:29:46.515Z,18.60
2018-04-27T12:32:17.576Z,18.70
2018-04-27T12:34:49.849Z,18.30
2018-04-27T12:37:48.735Z,18.50
2018-04-27T12:41:13.996Z,18.60
2018-04-27T12:53:03.662Z,18.60
2018-04-27T12:55:49.990Z,18.80
2018-04-27T12:58:31.792Z,18.90
2018-04-27T13:01:06.438Z,18.90
2018-04-27T13:03:59.898Z,18.90
2018-04-27T13:06:39.084Z,18.90
2018-04-27T13:09:14.706Z,19.30
2018-04-27T13:12:08.500Z,19.30
2018-04-27T13:18:12.100Z,19.50
2018-04-27T13:37:12.016Z,20.00
2018-04-27T13:39:49.969Z,20.60
2018-04-27T13:42:25.265Z,21.10
2018-04-27T13:48:57.402Z,20.80
2018-04-27T14:28:10.773Z,22.40
2018-04-27T14:44:07.586Z,21.50
2018-04-27T14:46:38.438Z,20.70
2018-04-27T14:49:12.575Z,20.40
2018-04-27T14:51:52.842Z,20.40
2018-04-27T14:54:57.442Z,20.70
2018-04-27T14:57:29.858Z,20.70
2018-04-27T15:00:00.248Z,21.50
2018-04-27T15:02:31.967Z,22.10
2018-04-27T15:05:01.782Z,22.30
2018-04-27T15:07:32.034Z,21.50
2018-04-27T15:10:06.685Z,20.90
2018-04-27T15:12:37.204Z,21.00
2018-04-27T15:15:07.354Z,21.00
2018-04-27T15:17:37.699Z,21.00
2018-04-27T15:23:29.556Z,20.70
2018-04-27T15:26:48.625Z,20.90
2018-04-27T15:29:24.459Z,20.70
2018-04-27T15:31:54.422Z,20.40
2018-04-27T15:34:26.286Z,20.80
2018-04-27T15:37:00.410Z,20.80
2018-04-27T15:39:30.429Z,20.80
2018-04-27T15:42:00.271Z,20.60
2018-04-27T15:44:29.921Z,21.10
2018-04-27T15:47:00.785Z,20.10
2018-04-27T15:49:31.693Z,20.10
2018-04-27T15:52:10.466Z,20.20
2018-04-27T15:54:48.415Z,20.20
2018-04-27T15:57:22.860Z,20.00
2018-04-27T15:59:53.881Z,20.00
2018-04-27T16:02:24.486Z,20.30
2018-04-27T16:04:54.331Z,20.30
2018-04-27T16:07:26.650Z,20.30
2018-04-27T16:09:56.459Z,20.20
2018-04-27T16:12:26.086Z,20.50
2018-04-27T16:14:56.796Z,20.80
2018-04-27T16:17:27.555Z,20.80
2018-04-27T16:19:58.063Z,20.60
2018-04-27T16:22:28.638Z,20.60
2018-04-27T16:25:00.449Z,20.30
2018-04-27T16:27:30.313Z,20.30
2018-04-27T16:30:01.385Z,20.80
2018-04-27T16:32:31.203Z,20.80
2018-04-27T16:35:00.749Z,20.80
2018-04-27T16:37:30.448Z,20.70
2018-04-27T16:40:02.283Z,20.70
2018-04-27T16:42:32.821Z,20.80
2018-04-27T16:45:08.644Z,20.20
2018-04-27T16:47:44.122Z,20.20
2018-04-27T16:50:14.312Z,20.40
2018-04-27T16:52:48.478Z,20.10
2018-04-27T16:55:22.822Z,19.80
2018-04-27T16:57:59.810Z,19.90
2018-04-27T17:00:30.661Z,20.00
2018-04-27T17:03:03.056Z,19.90
2018-04-27T17:05:33.987Z,20.00
2018-04-27T17:08:08.909Z,20.00
2018-04-27T17:10:39.200Z,20.00
2018-04-27T17:13:14.042Z,20.10
2018-04-27T17:15:45.295Z,20.10
2018-04-27T17:18:23.720Z,19.80
2018-04-27T17:23:50.411Z,19.60
2018-04-27T17:26:26.396Z,19.80
2018-04-27T17:29:21.561Z,19.60
2018-04-27T17:32:13.202Z,19.50
2018-04-27T17:35:06.464Z,19.60
2018-04-27T17:37:59.413Z,19.70
2018-04-27T17:40:29.449Z,19.70
2018-04-27T17:43:00.178Z,19.80
2018-04-27T17:45:29.831Z,19.70
2018-04-27T17:48:00.687Z,19.60
2018-04-27T17:50:30.340Z,19.60
2018-04-27T17:52:59.978Z,19.50
2018-04-27T17:55:33.110Z,19.40
2018-04-27T17:58:03.081Z,19.40
2018-04-27T18:00:33.457Z,19.30
2018-04-27T18:03:02.988Z,19.20
2018-04-27T18:05:33.205Z,19.20
2018-04-27T18:08:07.393Z,19.10
2018-04-27T18:10:40.777Z,19.00
2018-04-27T18:13:10.647Z,19.10
2018-04-27T18:15:41.033Z,19.10
2018-04-27T18:18:11.122Z,19.00
2018-04-27T18:20:44.099Z,19.00
2018-04-27T18:23:13.650Z,18.90
2018-04-27T18:25:44.220Z,18.90
2018-04-27T18:28:14.649Z,18.90
2018-04-27T18:30:44.361Z,18.80
2018-04-27T18:33:16.403Z,18.80
2018-04-27T18:35:49.063Z,18.80
2018-04-27T18:38:20.693Z,18.80
2018-04-27T18:40:50.574Z,18.70
2018-04-27T18:43:21.080Z,18.60
2018-04-27T18:45:50.810Z,18.60
2018-04-27T18:48:21.714Z,18.50
2018-04-27T18:50:52.546Z,18.40
2018-04-27T18:53:23.174Z,18.30
2018-04-27T18:55:58.186Z,18.30
2018-04-27T18:58:30.978Z,18.30
2018-04-27T19:01:03.563Z,18.10
2018-04-27T19:03:35.607Z,18.10
2018-04-27T19:06:06.626Z,18.00
2018-04-27T19:08:37.029Z,17.90
2018-04-27T19:11:10.324Z,17.80
2018-04-27T19:13:40.143Z,17.80
2018-04-27T19:16:13.304Z,17.70
2018-04-27T19:18:44.720Z,17.60
2018-04-27T19:21:19.519Z,17.60
2018-04-27T19:23:51.352Z,17.60
2018-04-27T19:26:42.696Z,17.50
2018-04-27T19:32:38.640Z,17.50
2018-04-27T19:35:09.481Z,17.40
2018-04-27T19:37:44.876Z,17.40
2018-04-27T19:40:20.880Z,17.50
2018-04-27T19:42:54.203Z,17.60
2018-04-27T19:45:31.499Z,17.60
2018-04-27T19:48:12.991Z,17.60
2018-04-27T19:50:50.973Z,17.60
2018-04-27T19:53:36.957Z,17.60
2018-04-27T19:56:23.067Z,17.60
2018-04-27T20:02:34.254Z,17.60
2018-04-27T20:05:07.672Z,17.60
2018-04-27T20:08:27.723Z,17.60
2018-04-27T20:11:01.240Z,17.50
2018-04-27T20:13:50.850Z,17.50
2018-04-27T20:16:33.384Z,17.40
2018-04-27T20:19:15.896Z,17.40
2018-04-27T20:21:50.472Z,17.30
2018-04-27T20:24:32.928Z,17.30
2018-04-27T20:27:14.873Z,17.30
2018-04-27T20:32:58.178Z,17.30
2018-04-27T20:35:31.368Z,17.30
2018-04-27T20:38:01.621Z,17.40
2018-04-27T20:40:37.492Z,17.20
2018-04-27T20:46:00.552Z,17.20
2018-04-27T20:51:31.335Z,17.20
2018-04-27T20:54:07.668Z,17.20
2018-04-27T20:59:32.219Z,17.10
2018-04-27T21:02:03.187Z,17.10
2018-04-27T21:04:43.196Z,17.00
2018-04-27T21:07:16.283Z,17.00
2018-04-27T21:10:09.276Z,17.00
2018-04-27T21:12:45.019Z,17.00
2018-04-27T21:15:55.743Z,16.90
2018-04-27T21:18:25.615Z,17.00
2018-04-27T21:21:01.999Z,17.00
2018-04-27T21:24:20.907Z,16.90
2018-04-27T21:27:06.619Z,16.90
2018-04-27T21:30:00.106Z,16.80
2018-04-27T21:32:34.802Z,16.70
2018-04-27T21:35:08.221Z,16.60
2018-04-27T21:37:43.016Z,16.50
2018-04-27T21:40:27.892Z,16.50
2018-04-27T21:43:15.907Z,16.50
2018-04-27T21:46:03.597Z,16.40
2018-04-27T21:48:45.267Z,16.30
2018-04-27T21:51:43.873Z,16.30
2018-04-27T21:54:16.075Z,16.30
2018-04-27T21:56:56.690Z,16.20
2018-04-27T21:59:28.229Z,16.20
2018-04-27T22:01:58.310Z,16.10
2018-04-27T22:04:28.629Z,16.00
2018-04-27T22:07:00.356Z,16.10
2018-04-27T22:09:30.651Z,15.90
2018-04-27T22:12:00.849Z,15.80
2018-04-27T22:14:30.970Z,15.70
2018-04-27T22:17:00.882Z,15.70
2018-04-27T22:19:33.241Z,15.70
2018-04-27T22:22:07.099Z,15.60
2018-04-27T22:24:52.679Z,15.60
2018-04-27T22:27:25.570Z,15.50
2018-04-27T22:30:00.151Z,15.50
2018-04-27T22:32:30.382Z,15.40
2018-04-27T22:35:00.936Z,15.30
2018-04-27T22:37:33.970Z,15.30
2018-04-27T22:40:10.278Z,15.20
2018-04-27T22:42:41.100Z,15.10
2018-04-27T22:45:11.812Z,15.00
2018-04-27T22:47:49.106Z,15.00
2018-04-27T22:50:25.249Z,14.90
2018-04-27T22:52:56.959Z,14.90
2018-04-27T22:55:38.060Z,14.90
2018-04-27T22:58:09.302Z,14.80
2018-04-27T23:00:47.430Z,14.70
2018-04-27T23:03:27.975Z,14.60
2018-04-27T23:05:58.110Z,14.50
2018-04-27T23:08:29.956Z,14.70
2018-04-27T23:11:05.402Z,14.60
2018-04-27T23:13:35.603Z,14.60
2018-04-27T23:16:06.584Z,14.50
2018-04-27T23:18:41.348Z,14.40
2018-04-27T23:21:12.901Z,14.40
2018-04-27T23:23:44.906Z,14.40
2018-04-27T23:26:15.079Z,14.40
2018-04-27T23:28:46.653Z,14.20
2018-04-27T23:31:21.735Z,14.10
2018-04-27T23:33:55.347Z,14.10
2018-04-27T23:36:25.552Z,14.10
2018-04-27T23:39:01.308Z,14.10
2018-04-27T23:41:35.940Z,14.10
2018-04-27T23:44:06.631Z,13.90
2018-04-27T23:46:39.427Z,13.90
2018-04-27T23:49:13.837Z,13.70
2018-04-27T23:51:44.674Z,13.80
2018-04-27T23:54:14.838Z,13.90
2018-04-27T23:56:45.835Z,13.90
2018-04-27T23:59:16.241Z,14.00
